Pagrindinis puslapis
METAR-TAF:

METAR-TAF

Oro uostai :

Qaisumah, Saudo Arabija

platuma: 28-19N, ilguma: 046-07E, Aukštis: 358 m

Dabartinis oras

Ataskaita buvo paskelbta 48 minutes, ne 04:00 UTC
Vėjas 6 kt iš Vakarų
Temperatūra 17°C
Drėgmė 39%
Slėgis 1017 hPa
Matomumas 10 km arba daugiau
nėra debesų žemiau 1500 m ir nėra kamuolinių lietaus debesų

METAR: OEPA 210400Z 28006KT CAVOK 17/03 Q1017 NOSIG

Laikas: 07:48 (04:48 UTC)

Prognozė

Ataskaita buvo paskelbta 5 valandos ir 48 minutes, ne 23:00 UTC
Prognozė galioja nuo 21 metu 00 UTC su 22 metu 06 UTC
Vėjas 10 kt iš Šiaurės/Šiaurės Vakarų
Matomumas 10 km arba daugiau
nėra debesų žemiau 1500 m ir nėra kamuolinių lietaus debesų

TAF: OEPA 202300Z 2100/2206 33010KT CAVOK

Orai ataskaitas ir orų prognozės (METAR, TAF).

turimą stotys yra geltonos ir raudonos taškus žemėlapyje.

Perkelti pele per norėdami pamatyti stoties vardą.

Tada spustelėkite, norėdami matyti oro stebėjimo ir prognozės.

Norėdami pakeisti žemėlapį: spustelėkite ant žalios mygtukų su juodo kryžiaus žemyn,; žalią mygtuką su brūkšneliu, jei norite nutolinti; arba žalių rodyklių gretimoms žemėlapius.


METAR-TAF: